Time;durP1;ratioP1;P1;durP2;ratioP2;P2;SDS_P1;SDS_P2;PMS_P1;PMS_P2;Temp;Humidity;BMP_temperature;BMP_pressure;BME280_temperature;BME280_humidity;BME280_pressure;Samples;Min_cycle;Max_cycle;Signal;HPM_P1;HPM_P2
2021/12/30 00:00:18;;;;;;;1.63;1.10;;;;;;;12.86;100.00;96039.44;5038208;28;20709;-72
2021/12/30 00:02:46;;;;;;;1.90;1.47;;;;;;;12.88;100.00;96043.53;5037692;28;20206;-72
2021/12/30 00:05:14;;;;;;;2.53;1.37;;;;;;;12.60;100.00;96051.63;5037862;28;20221;-71
2021/12/30 00:07:41;;;;;;;3.40;1.63;;;;;;;12.75;100.00;96057.66;5035115;28;20201;-72
2021/12/30 00:10:08;;;;;;;2.43;1.53;;;;;;;12.53;100.00;96048.97;5038030;28;20212;-74
2021/12/30 00:12:34;;;;;;;1.40;0.97;;;;;;;12.55;100.00;96057.53;5036939;28;20205;-72
2021/12/30 00:15:01;;;;;;;2.00;1.20;;;;;;;12.54;100.00;96066.47;5037175;28;20217;-72
2021/12/30 00:17:27;;;;;;;5.20;1.67;;;;;;;12.45;100.00;96072.91;5038322;28;20205;-73
2021/12/30 00:19:55;;;;;;;0.50;0.50;;;;;;;12.72;100.00;96069.44;5037845;28;20201;-72
2021/12/30 00:22:22;;;;;;;1.27;0.90;;;;;;;12.47;100.00;96081.44;5037319;28;20201;-71
2021/12/30 00:24:49;;;;;;;2.23;1.40;;;;;;;12.57;100.00;96081.91;5037828;28;20266;-72
2021/12/30 00:27:15;;;;;;;2.00;1.33;;;;;;;12.63;100.00;96081.16;5037545;28;20205;-72
2021/12/30 00:29:42;;;;;;;1.73;1.33;;;;;;;12.73;100.00;96080.81;5037592;28;20291;-75
2021/12/30 00:32:09;;;;;;;1.63;0.93;;;;;;;12.84;100.00;96078.44;5037670;28;20224;-72
2021/12/30 00:34:35;;;;;;;1.37;0.97;;;;;;;12.88;100.00;96077.06;5037032;28;20217;-72
2021/12/30 00:37:03;;;;;;;1.43;1.00;;;;;;;12.93;100.00;96074.66;5037510;28;20212;-73
2021/12/30 00:39:30;;;;;;;1.00;0.83;;;;;;;12.75;100.00;96084.09;5037851;28;20205;-72
2021/12/30 00:41:56;;;;;;;1.23;0.90;;;;;;;12.72;100.00;96085.28;5037216;28;20220;-73
2021/12/30 00:44:23;;;;;;;2.30;1.20;;;;;;;12.83;100.00;96092.69;5036359;28;20228;-72
2021/12/30 00:46:49;;;;;;;2.43;1.30;;;;;;;12.74;100.00;96099.16;5038228;28;20205;-72
2021/12/30 00:49:16;;;;;;;1.97;1.20;;;;;;;12.93;100.00;96087.88;5037100;28;20201;-72
2021/12/30 00:51:43;;;;;;;2.27;1.23;;;;;;;12.78;100.00;96092.44;5036655;28;20205;-72
2021/12/30 00:54:11;;;;;;;2.23;1.40;;;;;;;13.11;100.00;96107.53;5036666;28;20236;-72
2021/12/30 00:56:37;;;;;;;2.53;1.17;;;;;;;12.85;100.00;96117.94;5037613;28;20212;-72
2021/12/30 00:59:04;;;;;;;1.27;0.87;;;;;;;12.66;100.00;96120.41;5037075;28;20284;-72
2021/12/30 01:01:30;;;;;;;1.13;1.00;;;;;;;12.74;100.00;96127.38;5037231;28;20201;-72
2021/12/30 01:03:57;;;;;;;1.07;0.97;;;;;;;12.74;100.00;96128.22;5036580;28;20711;-72
2021/12/30 01:06:23;;;;;;;1.23;1.00;;;;;;;12.74;100.00;96138.81;5036494;28;20205;-72
2021/12/30 01:08:50;;;;;;;1.73;1.10;;;;;;;12.94;100.00;96130.00;5033783;28;20208;-72
2021/12/30 01:11:20;;;;;;;1.37;1.17;;;;;;;13.13;100.00;96134.59;5037332;28;20216;-72
2021/12/30 01:13:55;;;;;;;2.47;0.87;;;;;;;12.92;100.00;96145.25;5037058;28;20217;-72
2021/12/30 01:16:22;;;;;;;1.23;0.80;;;;;;;12.91;100.00;96146.25;5037443;28;20295;-72
2021/12/30 01:19:01;;;;;;;0.70;0.70;;;;;;;13.36;100.00;96126.38;5037667;28;20641;-72
2021/12/30 01:21:29;;;;;;;1.00;0.90;;;;;;;13.17;100.00;96141.13;5036977;28;21098;-72
2021/12/30 01:23:57;;;;;;;1.43;0.77;;;;;;;13.19;100.00;96148.91;5036121;28;21367;-72
2021/12/30 01:26:25;;;;;;;0.40;0.40;;;;;;;13.23;100.00;96158.88;5037409;28;20205;-72
2021/12/30 01:28:52;;;;;;;0.70;0.70;;;;;;;13.01;100.00;96165.25;5037451;28;20197;-72
2021/12/30 01:31:19;;;;;;;1.13;0.77;;;;;;;13.24;100.00;96160.53;5037178;28;20681;-72
2021/12/30 01:33:47;;;;;;;1.47;0.97;;;;;;;13.29;100.00;96173.16;5036355;28;20229;-72
2021/12/30 01:36:14;;;;;;;1.07;0.80;;;;;;;13.38;100.00;96178.13;5037040;28;20193;-72
2021/12/30 01:38:41;;;;;;;0.80;0.47;;;;;;;13.19;100.00;96181.47;5037011;28;20201;-72
2021/12/30 01:41:09;;;;;;;0.77;0.77;;;;;;;13.41;100.00;96173.22;5037400;28;20207;-72
2021/12/30 01:43:37;;;;;;;0.97;0.70;;;;;;;13.45;100.00;96178.94;5036336;28;20221;-72
2021/12/30 01:46:06;;;;;;;0.30;0.30;;;;;;;13.56;100.00;96179.22;5037105;28;20197;-72
2021/12/30 01:48:32;;;;;;;0.50;0.40;;;;;;;13.26;100.00;96178.84;5037276;28;20903;-72
2021/12/30 01:50:59;;;;;;;0.83;0.60;;;;;;;13.36;100.00;96181.97;5037595;28;20205;-72
2021/12/30 01:53:25;;;;;;;1.47;0.57;;;;;;;13.42;100.00;96174.88;5035851;28;21160;-72
2021/12/30 01:55:52;;;;;;;0.60;0.60;;;;;;;13.49;100.00;96181.03;5036732;28;20217;-72
2021/12/30 01:58:20;;;;;;;0.97;0.60;;;;;;;13.26;100.00;96186.78;5037168;28;20213;-72
2021/12/30 02:00:50;;;;;;;1.07;0.60;;;;;;;13.40;100.00;96184.84;5035510;28;20219;-72
2021/12/30 02:03:17;;;;;;;0.80;0.80;;;;;;;13.23;100.00;96200.41;5035608;28;20204;-72
2021/12/30 02:05:45;;;;;;;1.23;0.70;;;;;;;13.22;100.00;96196.94;5036630;28;20243;-72
2021/12/30 02:08:14;;;;;;;0.50;0.40;;;;;;;13.46;100.00;96202.56;5033879;28;20205;-72
2021/12/30 02:10:42;;;;;;;0.63;0.63;;;;;;;13.11;100.00;96208.06;5036347;28;20994;-72
2021/12/30 02:13:09;;;;;;;1.30;0.63;;;;;;;13.19;100.00;96207.09;5035596;28;20238;-72
2021/12/30 02:15:35;;;;;;;0.73;0.63;;;;;;;13.32;100.00;96215.13;5035906;28;20729;-72
2021/12/30 02:18:04;;;;;;;1.27;0.83;;;;;;;13.55;100.00;96222.59;5036164;28;20205;-72
2021/12/30 02:20:45;;;;;;;3.17;1.00;;;;;;;13.67;100.00;96223.69;5036581;28;20206;-72
2021/12/30 02:23:13;;;;;;;1.80;1.10;;;;;;;13.52;100.00;96222.97;5035524;28;20201;-72
2021/12/30 02:25:40;;;;;;;4.53;1.90;;;;;;;13.19;100.00;96220.34;5036049;28;20713;-72
2021/12/30 02:28:08;;;;;;;0.63;0.60;;;;;;;13.53;100.00;96211.38;5036058;28;20212;-74
2021/12/30 02:30:35;;;;;;;0.53;0.53;;;;;;;13.18;100.00;96216.84;5036536;28;20198;-71
2021/12/30 02:33:02;;;;;;;2.70;0.63;;;;;;;13.20;100.00;96211.38;5035560;28;20202;-74
2021/12/30 02:35:29;;;;;;;0.50;0.50;;;;;;;13.30;100.00;96217.97;5036159;28;20217;-72
2021/12/30 02:37:57;;;;;;;0.70;0.60;;;;;;;13.42;100.00;96225.16;5036991;28;20205;-72
2021/12/30 02:40:25;;;;;;;0.87;0.60;;;;;;;13.44;100.00;96225.78;5039430;28;20308;-72
2021/12/30 02:42:52;;;;;;;0.63;0.53;;;;;;;13.19;100.00;96238.88;5038864;28;20288;-72
2021/12/30 02:45:18;;;;;;;1.70;0.90;;;;;;;13.25;100.00;96243.34;5039504;28;20229;-74
2021/12/30 02:47:45;;;;;;;1.27;0.90;;;;;;;13.35;100.00;96241.19;5039516;28;20206;-72
2021/12/30 02:50:11;;;;;;;0.73;0.40;;;;;;;13.37;100.00;96241.84;5039653;28;20205;-71
2021/12/30 02:52:38;;;;;;;0.40;0.40;;;;;;;13.16;100.00;96247.16;5038761;28;20198;-72
2021/12/30 02:55:06;;;;;;;0.20;0.20;;;;;;;13.45;100.00;96243.31;5040201;28;20228;-70
2021/12/30 02:57:33;;;;;;;0.53;0.50;;;;;;;13.44;100.00;96251.44;5041791;28;20793;-72
2021/12/30 02:59:59;;;;;;;1.47;0.43;;;;;;;13.24;100.00;96263.72;5041619;28;20209;-74
2021/12/30 03:02:26;;;;;;;0.80;0.33;;;;;;;13.19;100.00;96263.47;5040609;28;20209;-70
2021/12/30 03:04:52;;;;;;;0.40;0.40;;;;;;;13.38;100.00;96261.97;5041195;28;20225;-71
2021/12/30 03:07:19;;;;;;;0.40;0.40;;;;;;;13.39;100.00;96261.81;5038917;28;20205;-73
2021/12/30 03:09:45;;;;;;;1.03;0.70;;;;;;;13.45;100.00;96253.91;5041599;28;20637;-72
2021/12/30 03:12:14;;;;;;;0.40;0.40;;;;;;;13.56;100.00;96261.28;5040773;28;20205;-73
2021/12/30 03:14:41;;;;;;;0.40;0.40;;;;;;;13.53;100.00;96264.34;5040930;28;20243;-73
2021/12/30 03:17:07;;;;;;;0.83;0.50;;;;;;;13.36;100.00;96275.41;5041627;28;20608;-72
2021/12/30 03:19:34;;;;;;;0.70;0.50;;;;;;;13.35;100.00;96283.53;5040908;28;20213;-71
2021/12/30 03:22:01;;;;;;;0.40;0.40;;;;;;;13.31;100.00;96282.28;5039440;28;20580;-72
2021/12/30 03:24:27;;;;;;;0.70;0.40;;;;;;;13.29;100.00;96295.72;5040184;28;20233;-71
2021/12/30 03:26:55;;;;;;;0.20;0.20;;;;;;;13.39;100.00;96299.66;5040784;28;20205;-71
2021/12/30 03:29:22;;;;;;;0.30;0.30;;;;;;;13.59;100.00;96300.63;5042501;28;20197;-73
2021/12/30 03:31:49;;;;;;;0.50;0.50;;;;;;;13.40;100.00;96309.25;5040929;28;20725;-73
2021/12/30 03:34:15;;;;;;;0.93;0.60;;;;;;;13.31;100.00;96314.06;5040150;28;20236;-73
2021/12/30 03:36:42;;;;;;;0.50;0.50;;;;;;;13.36;100.00;96317.75;5041176;28;20208;-72
2021/12/30 03:39:08;;;;;;;0.33;0.33;;;;;;;13.28;100.00;96323.19;5040848;28;20580;-73
2021/12/30 03:41:36;;;;;;;0.83;0.43;;;;;;;13.35;100.00;96323.25;5040589;28;20201;-73
2021/12/30 03:44:03;;;;;;;0.63;0.50;;;;;;;13.41;100.00;96321.44;5039699;28;20244;-73
2021/12/30 03:46:32;;;;;;;0.50;0.40;;;;;;;13.69;100.00;96318.81;5040182;28;20217;-74
2021/12/30 03:49:00;;;;;;;1.85;0.50;;;;;;;13.50;100.00;96330.09;5040936;28;20209;-74
2021/12/30 03:51:26;;;;;;;0.67;0.43;;;;;;;13.51;100.00;96335.19;5040807;28;20772;-72
2021/12/30 03:53:54;;;;;;;0.47;0.40;;;;;;;13.62;100.00;96333.81;5039987;28;20232;-73
2021/12/30 03:56:23;;;;;;;0.40;0.40;;;;;;;13.65;100.00;96334.25;5041580;28;20205;-71
2021/12/30 03:58:50;;;;;;;1.90;0.60;;;;;;;13.48;100.00;96342.72;5040470;28;20209;-72
2021/12/30 04:01:19;;;;;;;1.00;0.43;;;;;;;13.68;100.00;96341.84;5041110;28;20201;-71
2021/12/30 04:03:48;;;;;;;0.73;0.40;;;;;;;13.66;100.00;96341.22;5040075;28;20225;-73
2021/12/30 04:06:15;;;;;;;0.63;0.52;;;;;;;13.46;100.00;96350.00;5040248;28;20217;-72
2021/12/30 04:08:43;;;;;;;0.30;0.30;;;;;;;13.47;100.00;96347.16;5038206;28;20574;-73
2021/12/30 04:11:09;;;;;;;0.50;0.40;;;;;;;13.38;100.00;96354.63;5039866;28;20440;-70
2021/12/30 04:13:37;;;;;;;0.33;0.33;;;;;;;13.78;100.00;96366.13;5038803;28;20221;-72
2021/12/30 04:16:05;;;;;;;0.50;0.43;;;;;;;13.82;100.00;96370.03;5039912;28;20201;-73
2021/12/30 04:18:31;;;;;;;0.37;0.30;;;;;;;13.41;100.00;96369.09;5041097;28;20204;-73
2021/12/30 04:20:59;;;;;;;0.33;0.33;;;;;;;13.75;100.00;96368.38;5039579;28;20197;-71
2021/12/30 04:23:26;;;;;;;0.97;0.43;;;;;;;13.50;100.00;96383.88;5038969;28;20205;-71
2021/12/30 04:25:53;;;;;;;0.33;0.33;;;;;;;13.48;100.00;96383.22;5039649;28;20706;-73
2021/12/30 04:28:19;;;;;;;0.40;0.40;;;;;;;13.51;100.00;96404.00;5039013;28;20208;-73
2021/12/30 04:30:46;;;;;;;0.40;0.40;;;;;;;13.76;100.00;96394.66;5039608;28;20220;-71
2021/12/30 04:33:13;;;;;;;0.50;0.50;;;;;;;13.63;100.00;96399.03;5038352;28;20205;-73
2021/12/30 04:35:40;;;;;;;0.30;0.30;;;;;;;13.53;100.00;96398.53;5039087;28;20204;-73
2021/12/30 04:38:08;;;;;;;0.33;0.33;;;;;;;13.94;100.00;96396.81;5039746;28;20202;-70
2021/12/30 04:40:34;;;;;;;0.40;0.37;;;;;;;13.56;100.00;96398.97;5038875;28;20209;-71
2021/12/30 04:43:01;;;;;;;0.83;0.30;;;;;;;13.53;100.00;96396.72;5038470;28;20205;-73
2021/12/30 04:45:29;;;;;;;0.30;0.30;;;;;;;13.63;100.00;96399.03;5038522;28;20231;-72
2021/12/30 04:47:56;;;;;;;0.30;0.30;;;;;;;13.70;100.00;96403.38;5038777;28;20666;-73
2021/12/30 04:50:23;;;;;;;0.27;0.27;;;;;;;13.65;100.00;96397.81;5038517;28;20205;-72
2021/12/30 04:52:50;;;;;;;0.23;0.23;;;;;;;13.61;100.00;96407.16;5038154;28;20666;-73
2021/12/30 04:55:17;;;;;;;0.60;0.57;;;;;;;14.07;100.00;96408.31;5038569;28;20705;-72
2021/12/30 04:57:44;;;;;;;0.33;0.33;;;;;;;13.69;100.00;96408.84;5039170;28;20209;-73
2021/12/30 05:00:13;;;;;;;0.37;0.37;;;;;;;13.83;100.00;96424.66;5038740;28;20745;-71
2021/12/30 05:03:03;;;;;;;0.20;0.20;;;;;;;13.48;100.00;96415.00;5037746;28;20197;-73
2021/12/30 05:05:30;;;;;;;0.20;0.20;;;;;;;13.66;100.00;96433.09;5038214;28;20302;-72
2021/12/30 05:07:57;;;;;;;0.20;0.20;;;;;;;13.73;100.00;96437.41;5035673;28;20208;-71
2021/12/30 05:10:25;;;;;;;0.40;0.33;;;;;;;14.07;100.00;96448.88;5037943;28;20576;-74
2021/12/30 05:12:52;;;;;;;0.30;0.30;;;;;;;13.85;100.00;96449.13;5037113;28;20198;-72
2021/12/30 05:15:18;;;;;;;0.30;0.30;;;;;;;13.90;100.00;96446.72;5038733;28;20250;-71
2021/12/30 05:17:45;;;;;;;0.20;0.20;;;;;;;13.98;100.00;96448.41;5038468;28;20201;-73
2021/12/30 05:20:13;;;;;;;0.20;0.20;;;;;;;14.12;100.00;96445.69;5039280;28;20205;-71
2021/12/30 05:22:39;;;;;;;0.30;0.30;;;;;;;13.87;100.00;96451.59;5037448;28;20197;-74
2021/12/30 05:25:07;;;;;;;0.60;0.60;;;;;;;14.00;100.00;96448.03;5038041;28;20689;-72
2021/12/30 05:27:35;;;;;;;0.95;0.30;;;;;;;14.12;100.00;96456.28;5038036;28;20296;-72
2021/12/30 05:30:02;;;;;;;0.27;0.27;;;;;;;13.75;100.00;96450.47;5037866;28;20209;-70
2021/12/30 05:32:28;;;;;;;1.03;0.40;;;;;;;14.03;100.00;96454.78;5037841;28;20208;-73
2021/12/30 05:34:55;;;;;;;1.33;0.57;;;;;;;13.83;100.00;96456.44;5038147;28;20315;-72
2021/12/30 05:37:21;;;;;;;0.30;0.30;;;;;;;13.97;100.00;96463.47;5038249;28;20205;-73
2021/12/30 05:39:48;;;;;;;0.30;0.30;;;;;;;13.76;100.00;96474.13;5037939;28;20219;-73
2021/12/30 05:42:14;;;;;;;0.47;0.47;;;;;;;13.90;100.00;96470.56;5036796;28;20197;-72
2021/12/30 05:44:42;;;;;;;0.63;0.60;;;;;;;14.19;100.00;96475.69;5037369;28;20229;-73
2021/12/30 05:47:09;;;;;;;0.47;0.47;;;;;;;14.09;100.00;96476.06;5037201;28;20224;-74
2021/12/30 05:49:35;;;;;;;0.40;0.40;;;;;;;13.92;100.00;96483.63;5036880;28;20210;-74
2021/12/30 05:52:02;;;;;;;0.60;0.50;;;;;;;13.83;100.00;96480.28;5036674;28;20197;-71
2021/12/30 05:54:28;;;;;;;0.40;0.40;;;;;;;13.66;100.00;96491.34;5036195;28;20232;-72
2021/12/30 05:56:55;;;;;;;0.77;0.50;;;;;;;13.76;100.00;96505.06;5036699;28;20197;-74
2021/12/30 05:59:21;;;;;;;0.30;0.30;;;;;;;13.86;100.00;96506.41;5037151;28;20578;-74
2021/12/30 06:01:49;;;;;;;1.20;0.50;;;;;;;13.93;100.00;96495.88;5034283;28;20209;-74
2021/12/30 06:04:16;;;;;;;0.50;0.50;;;;;;;13.55;100.00;96503.22;5035316;28;20221;-72
2021/12/30 06:06:42;;;;;;;0.50;0.50;;;;;;;13.55;100.00;96500.59;5036326;28;20224;-69
2021/12/30 06:09:09;;;;;;;0.50;0.50;;;;;;;13.84;100.00;96500.47;5033710;28;20201;-72
2021/12/30 06:11:35;;;;;;;0.60;0.50;;;;;;;13.95;100.00;96505.25;5036637;28;20197;-72
2021/12/30 06:14:02;;;;;;;12.43;2.07;;;;;;;13.91;100.00;96503.16;5038499;28;20216;-72
2021/12/30 06:16:28;;;;;;;0.73;0.50;;;;;;;13.78;100.00;96503.88;5040425;28;20211;-73
2021/12/30 06:18:57;;;;;;;0.40;0.40;;;;;;;14.07;100.00;96499.22;5040653;28;20201;-70
2021/12/30 06:21:23;;;;;;;1.35;0.90;;;;;;;14.03;100.00;96507.78;5040306;28;20687;-70
2021/12/30 06:23:50;;;;;;;0.57;0.40;;;;;;;13.78;100.00;96508.34;5039678;28;20225;-73
2021/12/30 06:26:16;;;;;;;0.90;0.70;;;;;;;13.78;100.00;96513.66;5040389;28;20221;-73
2021/12/30 06:28:43;;;;;;;0.57;0.50;;;;;;;13.96;100.00;96514.81;5040406;28;20226;-73
2021/12/30 06:31:10;;;;;;;1.23;0.60;;;;;;;13.96;100.00;96516.66;5040128;28;20216;-70
2021/12/30 06:33:36;;;;;;;0.47;0.40;;;;;;;13.97;100.00;96516.47;5038994;28;20224;-73
2021/12/30 06:36:05;;;;;;;1.03;0.60;;;;;;;14.18;100.00;96524.44;5040256;28;20197;-73
2021/12/30 06:38:33;;;;;;;4.32;1.15;;;;;;;14.11;100.00;96516.41;5040017;28;20547;-72
2021/12/30 06:41:00;;;;;;;0.50;0.50;;;;;;;13.80;100.00;96523.03;5039921;28;20198;-70
2021/12/30 06:43:26;;;;;;;0.57;0.57;;;;;;;13.82;100.00;96518.38;5039299;28;20197;-72
2021/12/30 06:45:53;;;;;;;0.77;0.68;;;;;;;14.00;100.00;96521.38;5039500;28;20220;-73
2021/12/30 06:48:20;;;;;;;0.60;0.50;;;;;;;13.76;100.00;96519.16;5039564;28;21068;-72
2021/12/30 06:50:51;;;;;;;0.57;0.57;;;;;;;13.81;100.00;96522.03;5039714;28;21227;-72
2021/12/30 06:53:19;;;;;;;1.98;0.80;;;;;;;14.04;100.00;96520.00;5038946;28;20220;-73
2021/12/30 06:55:46;;;;;;;1.13;0.70;;;;;;;14.06;100.00;96516.16;5039446;28;20212;-74
2021/12/30 06:58:13;;;;;;;1.57;1.10;;;;;;;14.01;100.00;96505.31;5039605;28;20205;-71
2021/12/30 07:00:39;;;;;;;1.60;1.03;;;;;;;13.82;100.00;96505.13;5039353;28;20205;-73
2021/12/30 07:03:06;;;;;;;0.93;0.80;;;;;;;13.81;100.00;96506.16;5038708;28;20201;-73
2021/12/30 07:05:33;;;;;;;0.80;0.70;;;;;;;13.66;100.00;96515.19;5039389;28;20782;-73
2021/12/30 07:07:59;;;;;;;1.10;1.00;;;;;;;13.80;100.00;96515.09;5036048;28;20692;-73
2021/12/30 07:10:28;;;;;;;0.87;0.70;;;;;;;14.02;100.00;96511.41;5039384;28;20205;-71
2021/12/30 07:12:55;;;;;;;1.20;1.10;;;;;;;13.67;100.00;96508.84;5038609;28;20201;-74
2021/12/30 07:15:21;;;;;;;1.57;1.10;;;;;;;13.79;100.00;96521.41;5039282;28;20217;-73
2021/12/30 07:17:48;;;;;;;2.03;1.20;;;;;;;13.97;100.00;96513.00;5038972;28;20205;-73
2021/12/30 07:20:15;;;;;;;1.50;0.90;;;;;;;13.87;100.00;96515.97;5039466;28;20205;-73
2021/12/30 07:22:42;;;;;;;1.60;1.08;;;;;;;13.79;100.00;96513.47;5037036;28;20201;-73
2021/12/30 07:25:10;;;;;;;2.63;0.90;;;;;;;13.77;100.00;96514.66;5037067;28;20225;-73
2021/12/30 07:27:37;;;;;;;1.07;0.90;;;;;;;14.24;100.00;96523.66;5038596;28;20221;-73
2021/12/30 07:30:05;;;;;;;0.87;0.70;;;;;;;14.01;100.00;96525.66;5039465;28;20555;-73
2021/12/30 07:32:32;;;;;;;1.30;1.20;;;;;;;13.88;100.00;96530.84;5036930;28;20205;-73
2021/12/30 07:34:58;;;;;;;0.80;0.70;;;;;;;13.90;100.00;96528.84;5037345;28;20225;-73
2021/12/30 07:37:24;;;;;;;1.93;1.30;;;;;;;13.89;100.00;96535.16;5038727;28;20198;-73
2021/12/30 07:39:51;;;;;;;0.80;0.80;;;;;;;13.72;100.00;96528.47;5039145;28;20217;-73
2021/12/30 07:42:17;;;;;;;1.37;1.00;;;;;;;14.08;100.00;96516.00;5037842;28;20208;-73
2021/12/30 07:44:45;;;;;;;1.20;0.95;;;;;;;14.11;100.00;96526.19;5039008;28;20225;-73
2021/12/30 07:47:12;;;;;;;1.75;0.98;;;;;;;13.90;100.00;96531.50;5039083;28;20762;-73
2021/12/30 07:49:38;;;;;;;1.70;1.07;;;;;;;13.95;100.00;96546.81;5038566;28;20208;-73
2021/12/30 07:52:06;;;;;;;0.98;0.70;;;;;;;14.12;100.00;96541.09;5039665;28;21005;-73
2021/12/30 07:54:34;;;;;;;5.23;2.07;;;;;;;14.14;100.00;96541.72;5039324;28;21189;-73
2021/12/30 07:57:01;;;;;;;1.73;1.00;;;;;;;13.96;100.00;96553.75;5038898;28;20208;-73
2021/12/30 07:59:28;;;;;;;1.95;1.15;;;;;;;14.25;100.00;96559.75;5039342;28;20197;-73
2021/12/30 08:01:56;;;;;;;4.97;0.90;;;;;;;14.31;100.00;96564.31;5039548;28;20811;-73
2021/12/30 08:04:22;;;;;;;1.52;1.23;;;;;;;14.25;100.00;96573.81;5038279;28;20270;-73
2021/12/30 08:06:49;;;;;;;1.98;1.20;;;;;;;14.02;100.00;96582.97;5038963;28;20227;-73
2021/12/30 08:09:15;;;;;;;1.88;1.23;;;;;;;14.01;100.00;96576.84;5038197;28;20197;-73
2021/12/30 08:11:42;;;;;;;6.37;1.20;;;;;;;14.11;100.00;96581.84;5040288;28;20205;-73
2021/12/30 08:14:08;;;;;;;0.65;0.60;;;;;;;14.11;100.00;96584.50;5038419;28;20225;-73
2021/12/30 08:16:35;;;;;;;1.83;1.40;;;;;;;14.32;100.00;96589.78;5039409;28;20193;-73
2021/12/30 08:19:03;;;;;;;1.10;0.85;;;;;;;14.61;100.00;96577.16;5038768;28;20205;-73
2021/12/30 08:21:29;;;;;;;0.90;0.68;;;;;;;14.23;100.00;96585.63;5038675;28;20249;-73
2021/12/30 08:23:56;;;;;;;0.90;0.77;;;;;;;14.32;100.00;96585.31;5037768;28;20221;-73
2021/12/30 08:26:22;;;;;;;1.02;0.63;;;;;;;14.47;100.00;96579.91;5039299;28;20221;-73
2021/12/30 08:28:49;;;;;;;1.60;0.90;;;;;;;14.38;100.00;96581.88;5039109;28;20209;-73
2021/12/30 08:31:16;;;;;;;0.70;0.70;;;;;;;14.28;100.00;96580.56;5038847;28;20208;-73
2021/12/30 08:33:42;;;;;;;0.82;0.75;;;;;;;14.26;100.00;96572.00;5037872;28;20216;-73
2021/12/30 08:36:10;;;;;;;3.92;0.80;;;;;;;14.50;100.00;96582.19;5037923;28;20198;-73
2021/12/30 08:38:37;;;;;;;0.53;0.50;;;;;;;14.33;100.00;96596.72;5038079;28;20205;-73
2021/12/30 08:41:03;;;;;;;1.27;0.80;;;;;;;14.46;100.00;96595.03;5039174;28;20193;-73
2021/12/30 08:43:30;;;;;;;1.07;0.80;;;;;;;14.50;100.00;96600.75;5037453;28;20201;-73
2021/12/30 08:45:56;;;;;;;1.00;0.88;;;;;;;14.36;100.00;96596.38;5038203;28;20197;-73
2021/12/30 08:48:23;;;;;;;3.53;1.30;;;;;;;14.33;100.00;96592.28;5038217;28;20681;-73
2021/12/30 08:50:49;;;;;;;2.20;1.13;;;;;;;14.45;100.00;96592.56;5033035;28;20201;-73
2021/12/30 08:53:17;;;;;;;0.85;0.70;;;;;;;14.62;100.00;96591.25;5035569;28;20213;-73
2021/12/30 08:55:44;;;;;;;1.10;0.70;;;;;;;14.52;100.00;96601.38;5036119;28;20669;-73
2021/12/30 08:58:11;;;;;;;1.60;0.85;;;;;;;14.58;100.00;96603.28;5037480;28;20229;-73
2021/12/30 09:00:41;;;;;;;1.67;0.98;;;;;;;14.74;100.00;96599.31;5037393;28;20212;-73
2021/12/30 09:03:08;;;;;;;1.52;0.80;;;;;;;14.62;100.00;96612.47;5036989;28;20215;-73
2021/12/30 09:05:36;;;;;;;2.13;0.98;;;;;;;14.85;100.00;96601.41;5037324;28;20220;-73
2021/12/30 09:08:03;;;;;;;0.73;0.70;;;;;;;14.65;100.00;96611.09;5033874;28;20225;-74
2021/12/30 09:10:34;;;;;;;1.40;0.70;;;;;;;14.85;100.00;96609.38;5037137;28;20197;-73
2021/12/30 09:13:01;;;;;;;2.72;1.42;;;;;;;14.57;100.00;96604.28;5037772;28;21260;-74
2021/12/30 09:15:29;;;;;;;1.88;0.77;;;;;;;14.72;100.00;96600.50;5037186;28;20696;-73
2021/12/30 09:17:57;;;;;;;0.50;0.50;;;;;;;14.97;100.00;96604.34;5036508;28;20189;-73
2021/12/30 09:20:25;;;;;;;0.43;0.43;;;;;;;14.57;100.00;96606.94;5036931;28;21116;-73
2021/12/30 09:22:53;;;;;;;1.17;0.77;;;;;;;14.88;100.00;96610.81;5036085;28;20310;-73
2021/12/30 09:25:22;;;;;;;1.23;0.52;;;;;;;14.77;100.00;96606.88;5036921;28;20313;-73
2021/12/30 09:27:51;;;;;;;0.70;0.70;;;;;;;15.15;100.00;96608.16;5036675;28;20291;-73
2021/12/30 09:30:18;;;;;;;1.10;0.60;;;;;;;14.91;100.00;96613.91;5037398;28;20197;-73
2021/12/30 09:32:47;;;;;;;0.40;0.40;;;;;;;15.10;100.00;96612.41;5036151;28;20229;-73
2021/12/30 09:35:15;;;;;;;0.50;0.50;;;;;;;14.89;100.00;96608.00;5037123;28;20224;-73
2021/12/30 09:37:42;;;;;;;0.40;0.40;;;;;;;14.99;100.00;96612.94;5036447;28;20209;-73
2021/12/30 09:40:13;;;;;;;0.50;0.40;;;;;;;15.25;100.00;96619.25;5036023;28;20282;-73
2021/12/30 09:42:43;;;;;;;0.40;0.40;;;;;;;15.07;100.00;96610.13;5034311;28;20213;-73
2021/12/30 09:45:12;;;;;;;0.55;0.55;;;;;;;15.03;100.00;96608.88;5035930;28;20226;-74
2021/12/30 09:47:43;;;;;;;0.32;0.32;;;;;;;15.26;100.00;96612.91;5038991;28;20256;-73
2021/12/30 09:50:10;;;;;;;0.60;0.60;;;;;;;15.40;100.00;96611.97;5043209;28;20212;-74
2021/12/30 09:52:36;;;;;;;1.98;0.60;;;;;;;14.96;100.00;96603.53;5042208;28;20220;-74
2021/12/30 09:55:04;;;;;;;1.50;0.75;;;;;;;15.11;100.00;96614.03;5042578;28;20221;-74
2021/12/30 09:57:30;;;;;;;0.50;0.50;;;;;;;15.07;100.00;96595.03;5042091;28;20698;-74
2021/12/30 09:59:57;;;;;;;0.32;0.32;;;;;;;15.18;100.00;96607.75;5044201;28;20201;-74
2021/12/30 10:02:24;;;;;;;0.45;0.45;;;;;;;15.73;99.45;96603.09;5042867;28;20205;-75
2021/12/30 10:05:04;;;;;;;0.65;0.52;;;;;;;15.52;99.57;96599.78;5042091;28;20713;-74
2021/12/30 10:07:30;;;;;;;2.60;0.60;;;;;;;15.29;100.00;96597.41;5042622;28;20728;-74
2021/12/30 10:10:01;;;;;;;0.95;0.80;;;;;;;15.30;100.00;96598.25;5041061;28;20208;-74
2021/12/30 10:12:35;;;;;;;0.60;0.40;;;;;;;15.68;99.54;96607.38;5041563;28;20255;-74
2021/12/30 10:15:02;;;;;;;0.50;0.50;;;;;;;15.58;99.09;96614.91;5041826;28;20285;-74
2021/12/30 10:17:30;;;;;;;1.70;0.73;;;;;;;15.94;98.11;96617.06;5039933;28;20205;-74
2021/12/30 10:20:17;;;;;;;1.15;0.63;;;;;;;16.13;97.06;96613.66;5041401;28;20990;-74
2021/12/30 10:22:47;;;;;;;0.60;0.60;;;;;;;16.08;97.62;96608.13;5040579;28;20204;-74
2021/12/30 10:25:32;;;;;;;0.98;0.70;;;;;;;16.30;96.01;96612.25;5041687;28;20962;-74
2021/12/30 10:28:24;;;;;;;2.63;0.85;;;;;;;16.37;95.22;96613.13;5042219;28;20228;-74
2021/12/30 10:30:54;;;;;;;0.82;0.63;;;;;;;15.97;97.63;96610.53;5042371;28;20227;-74
2021/12/30 10:33:23;;;;;;;0.43;0.43;;;;;;;16.20;96.87;96622.44;5042101;28;20200;-74
2021/12/30 10:35:51;;;;;;;0.50;0.50;;;;;;;15.92;96.71;96618.28;5041671;28;20211;-75
2021/12/30 10:38:17;;;;;;;3.03;1.38;;;;;;;16.07;97.02;96624.28;5042467;28;20196;-74
2021/12/30 10:40:46;;;;;;;1.50;1.02;;;;;;;16.04;97.19;96620.19;5041941;28;20215;-74
2021/12/30 10:43:28;;;;;;;1.27;0.70;;;;;;;16.12;96.71;96630.63;5041584;28;20224;-75
2021/12/30 10:46:16;;;;;;;0.60;0.60;;;;;;;16.13;96.28;96631.47;5042007;28;20224;-74
2021/12/30 10:48:59;;;;;;;1.58;0.70;;;;;;;16.25;96.15;96643.13;5041736;28;20580;-73
2021/12/30 10:51:31;;;;;;;1.20;0.88;;;;;;;16.06;97.29;96634.09;5042095;28;20197;-75
2021/12/30 10:53:59;;;;;;;1.42;0.55;;;;;;;16.01;97.57;96633.88;5041408;28;20654;-74
2021/12/30 10:56:30;;;;;;;0.50;0.50;;;;;;;16.26;96.40;96634.97;5042504;28;20212;-74
2021/12/30 10:59:10;;;;;;;1.88;0.68;;;;;;;16.57;95.19;96641.38;5039432;28;20197;-75
2021/12/30 11:01:42;;;;;;;1.48;0.90;;;;;;;16.64;95.11;96642.19;5038628;28;20212;-75
2021/12/30 11:04:10;;;;;;;1.08;0.85;;;;;;;16.71;94.68;96631.53;5037604;28;20232;-74
2021/12/30 11:06:37;;;;;;;0.50;0.50;;;;;;;16.48;94.53;96634.59;5038270;28;20197;-75
2021/12/30 11:09:10;;;;;;;0.88;0.57;;;;;;;16.19;96.53;96644.75;5039096;28;20208;-74
2021/12/30 11:11:40;;;;;;;1.60;0.70;;;;;;;16.32;95.71;96658.13;5039080;28;20201;-74
2021/12/30 11:14:08;;;;;;;0.65;0.65;;;;;;;16.36;95.84;96640.72;5036670;28;20225;-74
2021/12/30 11:17:10;;;;;;;0.40;0.40;;;;;;;16.32;94.22;96642.16;5034964;28;20228;-75
2021/12/30 11:19:41;;;;;;;0.57;0.57;;;;;;;16.58;94.42;96636.84;5034901;28;20236;-74
2021/12/30 11:22:11;;;;;;;0.73;0.73;;;;;;;16.36;95.04;96640.72;5036410;28;20207;-74
2021/12/30 11:24:37;;;;;;;1.55;0.90;;;;;;;16.31;95.09;96635.19;5038201;28;20225;-74
2021/12/30 11:27:05;;;;;;;0.75;0.45;;;;;;;16.39;95.00;96639.50;5038032;28;20225;-75
2021/12/30 11:29:35;;;;;;;0.40;0.40;;;;;;;16.44;94.92;96645.03;5038877;28;20208;-74